Seaspan Champion — VDPS — position and weather

sailwx.info

Track history (hours):
 
Tides and Currents Weather Stations Pressure Air Temp Water Temp Dewpoint Dewpoint Depression Visibility Wind Speed Wind Dir Waves Ship Positions

Seaspan Champion

Last reported at 2016-Jul-25 13:33 UTC. Time now 2016-Jul-25 14:02 UTC.
Position N 48°52' W 123°38'.

Length 24 m; draft 5 m.

Type: Towing. MMSI: 316003661.

Date/timePositionNaut miles runAvg speedWind from/ knotsBaromVisibWave heightAir tempDewpointWater temp
2016-Jul-25 13:33N 48°52' W 123°38'1 1.4
2016-Jul-25 12:33N 48°53' W 123°36'3 3.4
2016-Jul-25 11:33N 48°57' W 123°37'4 4.2
2016-Jul-25 10:33N 49°01' W 123°35'6 6.1
2016-Jul-25 09:33N 49°04' W 123°28'7 6.9
2016-Jul-25 08:33N 49°06' W 123°18'7 7.1
2016-Jul-25 07:33N 49°07' W 123°07'6 6.4
2016-Jul-25 06:33N 49°09' W 122°58'1 0.6
2016-Jul-25 05:33N 49°09' W 122°57'1 1.4
2016-Jul-25 04:33N 49°10' W 122°55'0 0.0
2016-Jul-25 03:33N 49°10' W 122°55'0 0.0
2016-Jul-25 02:33N 49°10' W 122°55'0 0.0
2016-Jul-25 01:33N 49°10' W 122°55'0 0.0
2016-Jul-25 00:33N 49°10' W 122°55'0 0.0
2016-Jul-24 23:33N 49°10' W 122°55'0 0.0
2016-Jul-24 22:32N 49°10' W 122°55'0 0.0
2016-Jul-24 21:33N 49°10' W 122°55'  
2016-Jul-19 18:33N 49°10' W 122°55'5 5.2
2016-Jul-19 17:33N 49°08' W 123°03'6 6.4
2016-Jul-19 16:33N 49°08' W 123°13'7 6.7
2016-Jul-19 15:33N 49°06' W 123°23'6 5.7
2016-Jul-19 14:34N 49°08' W 123°14'9 8.9
2016-Jul-19 13:33N 49°09' W 123°01'5 4.8
2016-Jul-19 12:33N 49°12' W 122°54'3 3.5
2016-Jul-19 11:33N 49°09' W 122°58'4 4.2
2016-Jul-19 10:33N 49°07' W 123°04'4 4.4
2016-Jul-19 09:33N 49°07' W 123°11'4 3.6
2016-Jul-19 08:33N 49°07' W 123°16'5 4.9
2016-Jul-19 07:33N 49°05' W 123°23'16 5.3
2016-Jul-19 04:33N 48°52' W 123°38'1 0.6
2016-Jul-19 03:33N 48°53' W 123°39'0 0.1
2016-Jul-19 02:33N 48°53' W 123°38'1 1.0
2016-Jul-19 01:31N 48°53' W 123°37'7 6.9
2016-Jul-19 00:33N 48°60' W 123°36'6 5.7
2016-Jul-18 23:33N 49°05' W 123°33'2 1.5
2016-Jul-18 22:33N 49°06' W 123°35'4 3.8
2016-Jul-18 21:33N 49°03' W 123°32'2 2.3
2016-Jul-18 20:33N 49°02' W 123°28'3 3.5
2016-Jul-18 19:34N 49°04' W 123°24'8 7.9
2016-Jul-18 18:34N 49°08' W 123°14'9 8.8
2016-Jul-18 17:33N 49°09' W 123°00'0 0.0
2016-Jul-18 16:33N 49°09' W 123°00'7 6.9
2016-Jul-18 15:33N 49°07' W 123°10'1 1.0
2016-Jul-18 14:33N 49°07' W 123°11'0 0.0
2016-Jul-18 13:33N 49°07' W 123°11'4 3.8
2016-Jul-18 12:33N 49°07' W 123°06'9 8.8
2016-Jul-18 11:33N 49°12' W 122°54'3 3.1
2016-Jul-18 10:33N 49°09' W 122°58'5 4.8
2016-Jul-18 09:33N 49°07' W 123°05'4 4.3
2016-Jul-18 08:33N 49°07' W 123°11'4 3.8
2016-Jul-18 07:33N 49°07' W 123°17'3 3.3
2016-Jul-18 06:33N 49°10' W 123°19'6 5.9
2016-Jul-18 05:33N 49°16' W 123°18'1 0.7
2016-Jul-18 04:33N 49°15' W 123°19'4 4.3
2016-Jul-18 03:33N 49°17' W 123°25'5 5.3
2016-Jul-18 02:33N 49°19' W 123°32'5 5.0
2016-Jul-18 01:33N 49°21' W 123°39'5 5.1
2016-Jul-18 00:33N 49°23' W 123°46'5 5.0
2016-Jul-17 23:33N 49°25' W 123°53'5 5.3
2016-Jul-17 22:33N 49°28' W 124°00'5 5.3
2016-Jul-17 21:33N 49°32' W 124°06'6 5.7
2016-Jul-17 20:33N 49°36' W 124°12'6 5.8
2016-Jul-17 19:33N 49°41' W 124°18'6 6.0
2016-Jul-17 18:33N 49°44' W 124°25'6 5.8
2016-Jul-17 17:33N 49°48' W 124°32'4 4.2
2016-Jul-17 16:33N 49°52' W 124°34'1 0.6
2016-Jul-17 15:33N 49°52' W 124°33'3 3.5
2016-Jul-17 14:34N 49°48' W 124°32'5 4.8
2016-Jul-17 13:33N 49°46' W 124°26'5 4.8
2016-Jul-17 12:33N 49°43' W 124°20'6 5.4
2016-Jul-17 11:32N 49°38' W 124°15'5 5.1
2016-Jul-17 10:33N 49°35' W 124°09'5 5.3
2016-Jul-17 09:33N 49°31' W 124°04'6 5.6
2016-Jul-17 08:27N 49°27' W 123°57'6 5.8
2016-Jul-17 07:29N 49°24' W 123°49'6 5.8
2016-Jul-17 06:29N 49°22' W 123°41'11 5.5
2016-Jul-17 04:33N 49°19' W 123°25'5 5.4
2016-Jul-17 03:33N 49°16' W 123°18'6 5.7
2016-Jul-17 02:33N 49°10' W 123°19'4 3.7
2016-Jul-17 01:33N 49°07' W 123°16'6 6.3
2016-Jul-17 00:33N 49°07' W 123°06'6 6.2
2016-Jul-16 23:33N 49°09' W 122°57'3 3.3
2016-Jul-16 22:33N 49°12' W 122°55'0 0.0
2016-Jul-16 21:31N 49°12' W 122°55'0 0.0
2016-Jul-16 20:32N 49°12' W 122°55'0 0.0
2016-Jul-16 19:32N 49°12' W 122°55'0 0.0
2016-Jul-16 18:33N 49°12' W 122°55'0 0.0
2016-Jul-16 17:33N 49°12' W 122°55'0 0.0
2016-Jul-16 16:33N 49°12' W 122°55'0 0.0
2016-Jul-16 15:32N 49°12' W 122°55'0 0.0
2016-Jul-16 14:30N 49°12' W 122°55'0 0.0
2016-Jul-16 13:33N 49°12' W 122°55'0 0.0
2016-Jul-16 12:31N 49°12' W 122°55'0 0.0
2016-Jul-16 11:33N 49°12' W 122°55'0 0.0
2016-Jul-16 10:33N 49°12' W 122°55'0 0.0
2016-Jul-16 09:33N 49°12' W 122°55'1 1.0
2016-Jul-16 08:33N 49°11' W 122°55'4 3.7
2016-Jul-16 07:33N 49°09' W 123°00'7 7.2
2016-Jul-16 06:33N 49°07' W 123°10'10 4.8
2016-Jul-16 04:33N 49°15' W 123°18'3 3.0
2016-Jul-16 03:33N 49°17' W 123°21'4 3.9
2016-Jul-16 02:33N 49°15' W 123°27'5 5.0
2016-Jul-16 01:33N 49°15' W 123°34'9 8.5
2016-Jul-16 00:33N 49°13' W 123°47'5 4.8
2016-Jul-15 23:33N 49°09' W 123°51'0 0.1
2016-Jul-15 22:33N 49°09' W 123°51'3 3.1
2016-Jul-15 21:33N 49°12' W 123°53'5 5.4
2016-Jul-15 20:33N 49°12' W 123°44'5 5.1
2016-Jul-15 19:33N 49°10' W 123°37'5 5.0
2016-Jul-15 18:33N 49°09' W 123°30'5 5.5
2016-Jul-15 17:33N 49°07' W 123°22'5 5.4
2016-Jul-15 16:33N 49°08' W 123°14'7 6.9
2016-Jul-15 15:33N 49°09' W 123°03'4 3.8
2016-Jul-15 14:33N 49°09' W 122°57'  
Track history (hours):
 
Tides and Currents Weather Stations Pressure Air Temp Water Temp Dewpoint Dewpoint Depression Visibility Wind Speed Wind Dir Waves Ship Positions

Seaspan Champion

Last reported at 2016-Jul-25 13:33 UTC. Time now 2016-Jul-25 14:02 UTC.
Position N 48°52' W 123°38'.

Length 24 m; draft 5 m.

Type: Towing. MMSI: 316003661.

Date/timePositionNaut miles runAvg speedWind from/ knotsBaromVisibWave heightAir tempDewpointWater temp
2016-Jul-25 13:33N 48°52' W 123°38'1 1.4
2016-Jul-25 12:33N 48°53' W 123°36'3 3.4
2016-Jul-25 11:33N 48°57' W 123°37'4 4.2
2016-Jul-25 10:33N 49°01' W 123°35'6 6.1
2016-Jul-25 09:33N 49°04' W 123°28'7 6.9
2016-Jul-25 08:33N 49°06' W 123°18'7 7.1
2016-Jul-25 07:33N 49°07' W 123°07'6 6.4
2016-Jul-25 06:33N 49°09' W 122°58'1 0.6
2016-Jul-25 05:33N 49°09' W 122°57'1 1.4
2016-Jul-25 04:33N 49°10' W 122°55'0 0.0
2016-Jul-25 03:33N 49°10' W 122°55'0 0.0
2016-Jul-25 02:33N 49°10' W 122°55'0 0.0
2016-Jul-25 01:33N 49°10' W 122°55'0 0.0
2016-Jul-25 00:33N 49°10' W 122°55'0 0.0
2016-Jul-24 23:33N 49°10' W 122°55'0 0.0
2016-Jul-24 22:32N 49°10' W 122°55'0 0.0
2016-Jul-24 21:33N 49°10' W 122°55'  
2016-Jul-19 18:33N 49°10' W 122°55'5 5.2
2016-Jul-19 17:33N 49°08' W 123°03'6 6.4
2016-Jul-19 16:33N 49°08' W 123°13'7 6.7
2016-Jul-19 15:33N 49°06' W 123°23'6 5.7
2016-Jul-19 14:34N 49°08' W 123°14'9 8.9
2016-Jul-19 13:33N 49°09' W 123°01'5 4.8
2016-Jul-19 12:33N 49°12' W 122°54'3 3.5
2016-Jul-19 11:33N 49°09' W 122°58'4 4.2
2016-Jul-19 10:33N 49°07' W 123°04'4 4.4
2016-Jul-19 09:33N 49°07' W 123°11'4 3.6
2016-Jul-19 08:33N 49°07' W 123°16'5 4.9
2016-Jul-19 07:33N 49°05' W 123°23'16 5.3
2016-Jul-19 04:33N 48°52' W 123°38'1 0.6
2016-Jul-19 03:33N 48°53' W 123°39'0 0.1
2016-Jul-19 02:33N 48°53' W 123°38'1 1.0
2016-Jul-19 01:31N 48°53' W 123°37'7 6.9
2016-Jul-19 00:33N 48°60' W 123°36'6 5.7
2016-Jul-18 23:33N 49°05' W 123°33'2 1.5
2016-Jul-18 22:33N 49°06' W 123°35'4 3.8
2016-Jul-18 21:33N 49°03' W 123°32'2 2.3
2016-Jul-18 20:33N 49°02' W 123°28'3 3.5
2016-Jul-18 19:34N 49°04' W 123°24'8 7.9
2016-Jul-18 18:34N 49°08' W 123°14'9 8.8
2016-Jul-18 17:33N 49°09' W 123°00'0 0.0
2016-Jul-18 16:33N 49°09' W 123°00'7 6.9
2016-Jul-18 15:33N 49°07' W 123°10'1 1.0
2016-Jul-18 14:33N 49°07' W 123°11'0 0.0
2016-Jul-18 13:33N 49°07' W 123°11'4 3.8
2016-Jul-18 12:33N 49°07' W 123°06'9 8.8
2016-Jul-18 11:33N 49°12' W 122°54'3 3.1
2016-Jul-18 10:33N 49°09' W 122°58'5 4.8
2016-Jul-18 09:33N 49°07' W 123°05'4 4.3
2016-Jul-18 08:33N 49°07' W 123°11'4 3.8
2016-Jul-18 07:33N 49°07' W 123°17'3 3.3
2016-Jul-18 06:33N 49°10' W 123°19'6 5.9
2016-Jul-18 05:33N 49°16' W 123°18'1 0.7
2016-Jul-18 04:33N 49°15' W 123°19'4 4.3
2016-Jul-18 03:33N 49°17' W 123°25'5 5.3
2016-Jul-18 02:33N 49°19' W 123°32'5 5.0
2016-Jul-18 01:33N 49°21' W 123°39'5 5.1
2016-Jul-18 00:33N 49°23' W 123°46'5 5.0
2016-Jul-17 23:33N 49°25' W 123°53'5 5.3
2016-Jul-17 22:33N 49°28' W 124°00'5 5.3
2016-Jul-17 21:33N 49°32' W 124°06'6 5.7
2016-Jul-17 20:33N 49°36' W 124°12'6 5.8
2016-Jul-17 19:33N 49°41' W 124°18'6 6.0
2016-Jul-17 18:33N 49°44' W 124°25'6 5.8
2016-Jul-17 17:33N 49°48' W 124°32'4 4.2
2016-Jul-17 16:33N 49°52' W 124°34'1 0.6
2016-Jul-17 15:33N 49°52' W 124°33'3 3.5
2016-Jul-17 14:34N 49°48' W 124°32'5 4.8
2016-Jul-17 13:33N 49°46' W 124°26'5 4.8
2016-Jul-17 12:33N 49°43' W 124°20'6 5.4
2016-Jul-17 11:32N 49°38' W 124°15'5 5.1
2016-Jul-17 10:33N 49°35' W 124°09'5 5.3
2016-Jul-17 09:33N 49°31' W 124°04'6 5.6
2016-Jul-17 08:27N 49°27' W 123°57'6 5.8
2016-Jul-17 07:29N 49°24' W 123°49'6 5.8
2016-Jul-17 06:29N 49°22' W 123°41'11 5.5
2016-Jul-17 04:33N 49°19' W 123°25'5 5.4
2016-Jul-17 03:33N 49°16' W 123°18'6 5.7
2016-Jul-17 02:33N 49°10' W 123°19'4 3.7
2016-Jul-17 01:33N 49°07' W 123°16'6 6.3
2016-Jul-17 00:33N 49°07' W 123°06'6 6.2
2016-Jul-16 23:33N 49°09' W 122°57'3 3.3
2016-Jul-16 22:33N 49°12' W 122°55'0 0.0
2016-Jul-16 21:31N 49°12' W 122°55'0 0.0
2016-Jul-16 20:32N 49°12' W 122°55'0 0.0
2016-Jul-16 19:32N 49°12' W 122°55'0 0.0
2016-Jul-16 18:33N 49°12' W 122°55'0 0.0
2016-Jul-16 17:33N 49°12' W 122°55'0 0.0
2016-Jul-16 16:33N 49°12' W 122°55'0 0.0
2016-Jul-16 15:32N 49°12' W 122°55'0 0.0
2016-Jul-16 14:30N 49°12' W 122°55'0 0.0
2016-Jul-16 13:33N 49°12' W 122°55'0 0.0
2016-Jul-16 12:31N 49°12' W 122°55'0 0.0
2016-Jul-16 11:33N 49°12' W 122°55'0 0.0
2016-Jul-16 10:33N 49°12' W 122°55'0 0.0
2016-Jul-16 09:33N 49°12' W 122°55'1 1.0
2016-Jul-16 08:33N 49°11' W 122°55'4 3.7
2016-Jul-16 07:33N 49°09' W 123°00'7 7.2
2016-Jul-16 06:33N 49°07' W 123°10'10 4.8
2016-Jul-16 04:33N 49°15' W 123°18'3 3.0
2016-Jul-16 03:33N 49°17' W 123°21'4 3.9
2016-Jul-16 02:33N 49°15' W 123°27'5 5.0
2016-Jul-16 01:33N 49°15' W 123°34'9 8.5
2016-Jul-16 00:33N 49°13' W 123°47'5 4.8
2016-Jul-15 23:33N 49°09' W 123°51'0 0.1
2016-Jul-15 22:33N 49°09' W 123°51'3 3.1
2016-Jul-15 21:33N 49°12' W 123°53'5 5.4
2016-Jul-15 20:33N 49°12' W 123°44'5 5.1
2016-Jul-15 19:33N 49°10' W 123°37'5 5.0
2016-Jul-15 18:33N 49°09' W 123°30'5 5.5
2016-Jul-15 17:33N 49°07' W 123°22'5 5.4
2016-Jul-15 16:33N 49°08' W 123°14'7 6.9
2016-Jul-15 15:33N 49°09' W 123°03'4 3.8
2016-Jul-15 14:33N 49°09' W 122°57'  

Dump ship's entire track history